Time;durP1;ratioP1;P1;durP2;ratioP2;P2;SDS_P1;SDS_P2;PMS_P1;PMS_P2;Temp;Humidity;BMP_temperature;BMP_pressure;BME280_temperature;BME280_humidity;BME280_pressure;Samples;Min_cycle;Max_cycle;Signal;HPM_P1;HPM_P2
2022/10/18 00:00:50;;;;;;;2.50;2.30;;;17.40;70.30;;;;;;5052990;28;20171;-71
2022/10/18 00:03:15;;;;;;;2.22;2.13;;;17.40;70.30;;;;;;5053492;28;20529;-70
2022/10/18 00:05:41;;;;;;;2.53;2.28;;;17.40;70.30;;;;;;5053107;28;20634;-70
2022/10/18 00:08:06;;;;;;;2.83;2.15;;;17.50;70.30;;;;;;5052399;28;20183;-70
2022/10/18 00:10:32;;;;;;;2.80;2.55;;;17.50;70.30;;;;;;5053348;28;20211;-70
2022/10/18 00:12:57;;;;;;;2.75;2.40;;;17.40;70.30;;;;;;5052778;28;20179;-72
2022/10/18 00:15:23;;;;;;;2.45;2.25;;;17.40;70.30;;;;;;5053105;28;20215;-71
2022/10/18 00:17:48;;;;;;;2.67;2.20;;;17.40;70.30;;;;;;5053462;28;20177;-71
2022/10/18 00:20:14;;;;;;;2.70;2.50;;;17.50;70.30;;;;;;5052050;28;20265;-71
2022/10/18 00:22:40;;;;;;;2.53;2.33;;;17.40;70.30;;;;;;5053404;28;20179;-70
2022/10/18 00:25:06;;;;;;;2.22;1.85;;;17.50;70.30;;;;;;5059015;28;20167;-70
2022/10/18 00:27:31;;;;;;;2.30;2.20;;;17.40;70.30;;;;;;5072184;28;20174;-70
2022/10/18 00:29:57;;;;;;;2.28;2.08;;;17.40;70.30;;;;;;5072689;28;20220;-70
2022/10/18 00:32:23;;;;;;;2.45;2.25;;;17.40;70.30;;;;;;5073024;28;20535;-69
2022/10/18 00:34:48;;;;;;;2.13;2.03;;;17.40;70.30;;;;;;5072251;28;20253;-70
2022/10/18 00:37:14;;;;;;;2.70;2.50;;;17.40;70.30;;;;;;5072121;28;20245;-71
2022/10/18 00:39:39;;;;;;;2.58;2.38;;;17.40;70.30;;;;;;5072787;28;20193;-71
2022/10/18 00:42:05;;;;;;;2.33;2.20;;;17.40;70.30;;;;;;5071913;28;20672;-72
2022/10/18 00:44:30;;;;;;;2.50;2.30;;;17.40;70.30;;;;;;5072971;28;20174;-71
2022/10/18 00:46:59;;;;;;;2.85;2.45;;;17.40;70.30;;;;;;5072723;28;20541;-70
2022/10/18 00:49:31;;;;;;;2.50;2.30;;;17.40;70.30;;;;;;5054422;28;20663;-70
2022/10/18 00:52:05;;;;;;;2.38;2.17;;;17.40;70.30;;;;;;5055623;28;20200;-70
2022/10/18 00:54:32;;;;;;;2.00;1.90;;;17.40;70.30;;;;;;5072681;28;20205;-71
2022/10/18 00:56:57;;;;;;;2.75;2.28;;;17.40;70.30;;;;;;5070673;28;20179;-71
2022/10/18 00:59:23;;;;;;;2.40;2.25;;;17.40;70.30;;;;;;5054878;28;20170;-71
2022/10/18 01:01:49;;;;;;;2.60;2.40;;;17.40;70.30;;;;;;5054644;28;20257;-70
2022/10/18 01:04:14;;;;;;;2.45;2.25;;;17.40;70.30;;;;;;5070235;28;20170;-69
2022/10/18 01:07:03;;;;;;;2.95;2.55;;;17.40;70.30;;;;;;5070464;28;20248;-70
2022/10/18 01:09:40;;;;;;;2.40;2.20;;;17.40;70.30;;;;;;5060936;28;20185;-70
2022/10/18 01:12:35;;;;;;;2.58;2.40;;;17.40;70.30;;;;;;5070848;28;20225;-70
2022/10/18 01:15:24;;;;;;;2.50;2.30;;;17.40;70.30;;;;;;5070897;28;20224;-70
2022/10/18 01:18:11;;;;;;;2.00;1.90;;;17.40;70.30;;;;;;5070739;28;20175;-71
2022/10/18 01:20:44;;;;;;;2.33;2.20;;;17.40;70.30;;;;;;5072443;28;20227;-70
2022/10/18 01:23:15;;;;;;;2.30;2.20;;;17.50;70.50;;;;;;5072324;28;20192;-70
2022/10/18 01:26:07;;;;;;;2.05;1.95;;;17.40;70.30;;;;;;5059006;28;20167;-70
2022/10/18 01:28:43;;;;;;;2.33;2.13;;;17.40;70.30;;;;;;5051469;28;20209;-70
2022/10/18 01:31:36;;;;;;;2.53;2.35;;;17.40;70.30;;;;;;5034552;28;20178;-70
2022/10/18 01:34:03;;;;;;;2.40;2.20;;;17.40;70.40;;;;;;5051408;28;20233;-70
2022/10/18 01:36:39;;;;;;;2.60;2.22;;;17.40;70.30;;;;;;5051773;28;20179;-71
2022/10/18 01:39:08;;;;;;;2.28;2.08;;;17.40;70.30;;;;;;5048514;28;20174;-71
2022/10/18 01:41:34;;;;;;;2.60;2.40;;;17.40;70.40;;;;;;5034005;28;20665;-71
2022/10/18 01:44:00;;;;;;;2.33;2.13;;;17.40;70.50;;;;;;5033510;28;20194;-70
2022/10/18 01:46:26;;;;;;;2.75;2.30;;;17.40;70.40;;;;;;5032511;28;20657;-70
2022/10/18 01:48:52;;;;;;;2.47;2.28;;;17.40;70.40;;;;;;5050383;28;20186;-70
2022/10/18 01:51:28;;;;;;;2.28;2.08;;;17.40;70.50;;;;;;5034202;28;20199;-70
2022/10/18 01:53:54;;;;;;;2.38;2.28;;;17.40;70.40;;;;;;5052128;28;20336;-70
2022/10/18 01:56:30;;;;;;;2.72;2.53;;;17.40;70.50;;;;;;5051540;28;20262;-70
2022/10/18 01:59:07;;;;;;;2.60;2.40;;;17.40;70.40;;;;;;5049670;28;20582;-70
2022/10/18 02:01:39;;;;;;;2.22;2.10;;;17.40;70.50;;;;;;5052088;28;20236;-70
2022/10/18 02:04:44;;;;;;;2.40;2.20;;;17.40;70.50;;;;;;5050601;28;20230;-69
2022/10/18 02:07:33;;;;;;;2.38;2.17;;;17.40;70.60;;;;;;5050811;28;20550;-69
2022/10/18 02:10:29;;;;;;;2.35;2.20;;;17.40;70.50;;;;;;5050562;28;20180;-70
2022/10/18 02:12:55;;;;;;;2.33;2.20;;;17.40;70.60;;;;;;5049866;28;20202;-70
2022/10/18 02:15:22;;;;;;;2.50;2.30;;;17.40;70.50;;;;;;5050334;28;20210;-71
2022/10/18 02:17:48;;;;;;;2.25;2.15;;;17.40;70.60;;;;;;5034147;28;20633;-71
2022/10/18 02:20:15;;;;;;;2.80;2.60;;;17.40;70.60;;;;;;5036451;28;20190;-70
2022/10/18 02:22:41;;;;;;;2.97;2.75;;;17.40;70.50;;;;;;5037561;28;20180;-71
2022/10/18 02:25:09;;;;;;;2.58;2.38;;;17.40;70.60;;;;;;5060726;28;20175;-70
2022/10/18 02:27:35;;;;;;;2.60;2.40;;;17.40;70.60;;;;;;5073620;28;20185;-70
2022/10/18 02:30:00;;;;;;;3.00;2.63;;;17.40;70.50;;;;;;5074769;28;20214;-70
2022/10/18 02:32:33;;;;;;;2.60;2.10;;;17.40;70.50;;;;;;5074142;28;20197;-69
2022/10/18 02:35:25;;;;;;;2.22;2.13;;;17.40;70.60;;;;;;5073218;28;20217;-71
2022/10/18 02:37:51;;;;;;;2.55;2.35;;;17.40;70.60;;;;;;5060011;28;20574;-70
2022/10/18 02:40:17;;;;;;;2.58;2.38;;;17.40;70.60;;;;;;5057070;28;20186;-72
2022/10/18 02:42:49;;;;;;;2.35;2.20;;;17.40;70.50;;;;;;5072799;28;20166;-72
2022/10/18 02:45:14;;;;;;;2.88;2.67;;;17.40;70.60;;;;;;5073624;28;20181;-71
2022/10/18 02:47:40;;;;;;;2.80;2.58;;;17.40;70.60;;;;;;5075158;28;20179;-71
2022/10/18 02:50:06;;;;;;;2.60;2.40;;;17.40;70.60;;;;;;5074123;28;20174;-69
2022/10/18 02:52:31;;;;;;;2.85;2.65;;;17.40;70.60;;;;;;5075309;28;20177;-71
2022/10/18 02:54:56;;;;;;;2.45;2.25;;;17.40;70.70;;;;;;5073796;28;20194;-72
2022/10/18 02:57:22;;;;;;;2.60;2.40;;;17.40;70.70;;;;;;5075001;28;20166;-71
2022/10/18 02:59:48;;;;;;;3.08;2.80;;;17.40;70.70;;;;;;5075045;28;20224;-71
2022/10/18 03:02:13;;;;;;;3.50;2.53;;;17.40;70.70;;;;;;5073870;28;20162;-70
2022/10/18 03:04:39;;;;;;;2.97;2.55;;;17.40;70.70;;;;;;5074693;28;20178;-70
2022/10/18 03:07:04;;;;;;;3.83;2.65;;;17.40;70.60;;;;;;5074515;28;20221;-70
2022/10/18 03:09:30;;;;;;;2.83;2.63;;;17.40;70.60;;;;;;5073863;28;20193;-70
2022/10/18 03:11:55;;;;;;;2.42;2.22;;;17.40;70.60;;;;;;5074327;28;20682;-71
2022/10/18 03:14:21;;;;;;;2.75;2.55;;;17.40;70.60;;;;;;5074087;28;20731;-71
2022/10/18 03:16:46;;;;;;;2.40;2.20;;;17.40;70.60;;;;;;5074022;28;20684;-71
2022/10/18 03:19:12;;;;;;;2.70;2.50;;;17.40;70.80;;;;;;5074341;28;20201;-70
2022/10/18 03:21:37;;;;;;;2.63;2.42;;;17.40;70.60;;;;;;5074357;28;20539;-71
2022/10/18 03:24:03;;;;;;;2.30;2.10;;;17.40;70.60;;;;;;5073258;28;20645;-70
2022/10/18 03:26:28;;;;;;;2.63;2.42;;;17.40;71.50;;;;;;5056090;28;20182;-70
2022/10/18 03:28:54;;;;;;;2.72;2.50;;;17.30;70.60;;;;;;5054124;28;20548;-70
2022/10/18 03:31:20;;;;;;;2.63;2.42;;;17.40;70.60;;;;;;5052916;28;20167;-70
2022/10/18 03:33:45;;;;;;;2.90;2.70;;;17.40;70.60;;;;;;5054286;28;20194;-70
2022/10/18 03:36:11;;;;;;;2.92;2.40;;;17.40;70.60;;;;;;5053836;28;20175;-71
2022/10/18 03:38:37;;;;;;;2.60;2.40;;;17.40;70.70;;;;;;5053366;28;20513;-71
2022/10/18 03:41:02;;;;;;;3.17;2.88;;;17.40;70.70;;;;;;5053759;28;20175;-72
2022/10/18 03:43:28;;;;;;;2.88;2.67;;;17.30;70.60;;;;;;5053876;28;20171;-71
2022/10/18 03:45:53;;;;;;;2.63;2.42;;;17.40;70.70;;;;;;5053354;28;20190;-71
2022/10/18 03:48:19;;;;;;;3.35;3.05;;;17.40;70.70;;;;;;5053445;28;20228;-71
2022/10/18 03:50:44;;;;;;;2.75;2.55;;;17.40;70.70;;;;;;5053822;28;20170;-70
2022/10/18 03:53:10;;;;;;;3.38;2.80;;;17.40;70.70;;;;;;5052599;28;20232;-71
2022/10/18 03:55:36;;;;;;;4.85;3.00;;;17.40;70.60;;;;;;5053733;28;20187;-70
2022/10/18 03:58:01;;;;;;;3.75;2.58;;;17.40;70.60;;;;;;5053259;28;20171;-71
2022/10/18 04:00:27;;;;;;;2.33;2.15;;;17.40;70.70;;;;;;5053186;28;20270;-70
2022/10/18 04:02:52;;;;;;;3.08;2.83;;;17.40;70.70;;;;;;5053606;28;20258;-70
2022/10/18 04:05:18;;;;;;;2.70;2.50;;;17.40;70.60;;;;;;5052738;28;20187;-70
2022/10/18 04:07:43;;;;;;;2.80;2.60;;;17.40;70.70;;;;;;5053304;28;20167;-69
2022/10/18 04:10:09;;;;;;;2.78;2.58;;;17.40;70.70;;;;;;5052930;28;20229;-69
2022/10/18 04:12:34;;;;;;;2.83;2.63;;;17.40;70.70;;;;;;5052889;28;20175;-71
2022/10/18 04:15:00;;;;;;;2.78;2.58;;;17.40;70.70;;;;;;5053200;28;20210;-71
2022/10/18 04:17:26;;;;;;;2.80;2.60;;;17.30;70.90;;;;;;5053492;28;20277;-71
2022/10/18 04:19:51;;;;;;;2.70;2.50;;;17.40;70.70;;;;;;5052531;28;20637;-71
2022/10/18 04:22:17;;;;;;;2.72;2.53;;;17.40;70.80;;;;;;5052751;28;20621;-71
2022/10/18 04:24:42;;;;;;;3.20;2.30;;;17.40;70.80;;;;;;5056195;28;20221;-70
2022/10/18 04:27:08;;;;;;;2.95;2.58;;;17.40;70.70;;;;;;5072374;28;20227;-70
2022/10/18 04:29:34;;;;;;;2.40;2.20;;;17.40;70.80;;;;;;5072878;28;20257;-70
2022/10/18 04:31:59;;;;;;;2.60;2.40;;;17.40;70.70;;;;;;5072543;28;20261;-70
2022/10/18 04:34:25;;;;;;;2.75;2.53;;;17.30;70.70;;;;;;5072225;28;20264;-70
2022/10/18 04:36:50;;;;;;;2.75;2.55;;;17.30;70.70;;;;;;5072864;28;20206;-71
2022/10/18 04:39:16;;;;;;;2.50;2.35;;;17.40;70.80;;;;;;5072529;28;20305;-71
2022/10/18 04:41:41;;;;;;;2.55;2.35;;;17.40;70.80;;;;;;5071569;28;20253;-72
2022/10/18 04:44:07;;;;;;;3.20;3.00;;;17.30;70.80;;;;;;5072649;28;20258;-71
2022/10/18 04:46:32;;;;;;;2.60;2.38;;;17.30;70.70;;;;;;5072487;28;20178;-71
2022/10/18 04:49:00;;;;;;;3.30;2.47;;;17.30;70.70;;;;;;5071873;28;20179;-70
2022/10/18 04:51:26;;;;;;;2.58;2.38;;;17.30;70.70;;;;;;5072476;28;20629;-70
2022/10/18 04:53:52;;;;;;;2.65;2.45;;;17.30;70.90;;;;;;5072701;28;20282;-72
2022/10/18 04:56:17;;;;;;;2.92;2.72;;;17.30;70.80;;;;;;5071797;28;20182;-71
2022/10/18 04:58:43;;;;;;;2.33;2.17;;;17.40;70.80;;;;;;5072835;28;20187;-71
2022/10/18 05:01:08;;;;;;;2.30;2.20;;;17.40;70.80;;;;;;5071863;28;20595;-71
2022/10/18 05:03:34;;;;;;;2.47;2.30;;;17.30;70.70;;;;;;5071660;28;20684;-70
2022/10/18 05:05:59;;;;;;;2.35;2.22;;;17.30;70.70;;;;;;5072044;28;20273;-70
2022/10/18 05:08:25;;;;;;;3.15;2.40;;;17.30;70.70;;;;;;5071661;28;20167;-70
2022/10/18 05:10:50;;;;;;;2.58;2.38;;;17.30;70.70;;;;;;5072542;28;20234;-70
2022/10/18 05:13:16;;;;;;;2.65;2.45;;;17.30;70.90;;;;;;5072293;28;20504;-71
2022/10/18 05:15:41;;;;;;;2.88;2.65;;;17.30;70.70;;;;;;5071901;28;20228;-71
2022/10/18 05:18:07;;;;;;;2.47;2.28;;;17.40;70.80;;;;;;5072264;28;20216;-72
2022/10/18 05:20:32;;;;;;;2.70;2.50;;;17.30;70.80;;;;;;5072537;28;20179;-71
2022/10/18 05:22:58;;;;;;;2.10;2.00;;;17.30;70.70;;;;;;5071151;28;20170;-71
2022/10/18 05:25:23;;;;;;;4.32;2.90;;;17.30;70.80;;;;;;5063721;28;20174;-70
2022/10/18 05:27:49;;;;;;;2.45;2.25;;;17.30;70.70;;;;;;5052140;28;20182;-70
2022/10/18 05:30:14;;;;;;;2.47;2.28;;;17.30;70.80;;;;;;5051006;28;20229;-70
2022/10/18 05:32:40;;;;;;;2.90;2.60;;;17.30;70.80;;;;;;5052454;28;20197;-70
2022/10/18 05:35:06;;;;;;;2.65;2.22;;;17.30;70.80;;;;;;5052013;28;20272;-71
2022/10/18 05:37:31;;;;;;;2.20;2.10;;;17.30;70.80;;;;;;5051350;28;20175;-70
2022/10/18 05:39:57;;;;;;;2.72;2.53;;;17.30;70.80;;;;;;5051328;28;20669;-71
2022/10/18 05:42:22;;;;;;;2.20;2.10;;;17.30;70.80;;;;;;5052133;28;20588;-71
2022/10/18 05:44:48;;;;;;;2.53;2.33;;;17.30;70.80;;;;;;5051736;28;20183;-71
2022/10/18 05:47:13;;;;;;;2.70;2.50;;;17.40;70.80;;;;;;5052008;28;20178;-71
2022/10/18 05:49:39;;;;;;;2.40;2.20;;;17.30;71.70;;;;;;5051929;28;20175;-70
2022/10/18 05:52:04;;;;;;;2.72;2.53;;;17.30;70.90;;;;;;5051141;28;20273;-70
2022/10/18 05:54:30;;;;;;;2.58;2.38;;;17.30;70.80;;;;;;5055659;28;20286;-71
2022/10/18 05:56:55;;;;;;;2.50;2.30;;;17.30;70.80;;;;;;5055809;28;20258;-71
2022/10/18 05:59:21;;;;;;;2.80;2.47;;;17.20;70.80;;;;;;5054773;28;20588;-71
2022/10/18 06:01:47;;;;;;;2.60;2.40;;;17.30;70.90;;;;;;5055972;28;20686;-70
2022/10/18 06:04:12;;;;;;;2.50;2.30;;;17.30;70.80;;;;;;5055604;28;20621;-70
2022/10/18 06:06:38;;;;;;;2.55;2.35;;;17.30;70.80;;;;;;5055017;28;20167;-70
2022/10/18 06:09:04;;;;;;;2.60;2.40;;;17.30;70.80;;;;;;5055281;28;20540;-70
2022/10/18 06:11:29;;;;;;;2.70;2.50;;;17.30;70.90;;;;;;5055268;28;20716;-70
2022/10/18 06:13:56;;;;;;;2.70;2.30;;;17.30;70.90;;;;;;5054893;28;20207;-69
2022/10/18 06:16:22;;;;;;;2.70;2.50;;;17.20;70.90;;;;;;5055510;28;20664;-70
2022/10/18 06:18:53;;;;;;;2.40;2.20;;;17.30;70.80;;;;;;5054969;28;20213;-71
2022/10/18 06:21:18;;;;;;;2.55;2.15;;;17.30;70.90;;;;;;5055445;28;20225;-70
2022/10/18 06:23:50;;;;;;;2.83;2.63;;;17.30;70.90;;;;;;5055704;28;20218;-70
2022/10/18 06:26:15;;;;;;;2.50;2.30;;;17.30;70.90;;;;;;5070603;28;20178;-69
2022/10/18 06:28:41;;;;;;;2.45;2.25;;;17.30;70.90;;;;;;5075328;28;20178;-70
2022/10/18 06:31:06;;;;;;;2.20;2.00;;;17.30;70.90;;;;;;5075245;28;20208;-69
2022/10/18 06:33:33;;;;;;;2.45;2.25;;;17.30;70.80;;;;;;5074615;28;20166;-69
2022/10/18 06:36:05;;;;;;;2.47;2.28;;;17.30;71.00;;;;;;5075091;28;20183;-71
2022/10/18 06:38:31;;;;;;;3.45;2.35;;;17.30;71.00;;;;;;5075090;28;20170;-72
2022/10/18 06:40:57;;;;;;;2.60;2.40;;;17.30;71.10;;;;;;5073923;28;20175;-72
2022/10/18 06:43:23;;;;;;;2.35;2.00;;;17.30;71.10;;;;;;5075289;28;20274;-72
2022/10/18 06:45:49;;;;;;;2.35;2.20;;;17.30;71.00;;;;;;5074978;28;20265;-74
2022/10/18 06:48:15;;;;;;;2.42;2.22;;;17.40;71.00;;;;;;5074174;28;20257;-73
2022/10/18 06:50:40;;;;;;;3.05;2.85;;;17.40;71.00;;;;;;5075082;28;20205;-65
2022/10/18 06:53:07;;;;;;;2.63;2.40;;;17.40;71.10;;;;;;5075026;28;20228;-67
2022/10/18 06:55:33;;;;;;;2.25;2.08;;;17.40;71.10;;;;;;5074513;28;20225;-70
2022/10/18 06:57:58;;;;;;;2.17;1.98;;;17.50;71.50;;;;;;5074780;28;20170;-69
2022/10/18 07:00:24;;;;;;;3.42;2.05;;;17.50;71.70;;;;;;5075328;28;20178;-68
2022/10/18 07:02:49;;;;;;;2.63;2.38;;;17.50;71.60;;;;;;5074550;28;20200;-68
2022/10/18 07:05:15;;;;;;;2.60;2.40;;;17.50;71.60;;;;;;5073861;28;20171;-68
2022/10/18 07:07:40;;;;;;;2.47;2.28;;;17.50;71.70;;;;;;5075056;28;20220;-68
2022/10/18 07:10:06;;;;;;;3.03;2.38;;;17.50;71.40;;;;;;5073942;28;20535;-68
2022/10/18 07:12:32;;;;;;;3.28;1.98;;;17.40;71.30;;;;;;5073897;28;20239;-69
2022/10/18 07:14:57;;;;;;;4.00;2.40;;;17.40;71.30;;;;;;5074477;28;20661;-69
2022/10/18 07:17:23;;;;;;;2.58;2.38;;;17.40;71.20;;;;;;5074685;28;20252;-69
2022/10/18 07:19:48;;;;;;;2.40;2.28;;;17.50;71.30;;;;;;5074936;28;20178;-69
2022/10/18 07:22:14;;;;;;;4.82;2.35;;;17.50;71.20;;;;;;5073895;28;20171;-69
2022/10/18 07:24:39;;;;;;;2.90;2.25;;;17.50;71.10;;;;;;5071971;28;20175;-68
2022/10/18 07:27:05;;;;;;;2.42;2.22;;;17.50;71.00;;;;;;5054556;28;20174;-68
2022/10/18 07:29:31;;;;;;;2.55;2.35;;;17.50;70.90;;;;;;5053954;28;20181;-69
2022/10/18 07:31:56;;;;;;;3.58;2.53;;;17.50;70.80;;;;;;5054485;28;20250;-68
2022/10/18 07:34:22;;;;;;;2.33;2.13;;;17.60;70.90;;;;;;5054347;28;20622;-68
2022/10/18 07:36:47;;;;;;;3.30;2.50;;;17.60;70.80;;;;;;5053899;28;20252;-69
2022/10/18 07:39:13;;;;;;;2.58;2.30;;;17.60;70.60;;;;;;5054280;28;20217;-68
2022/10/18 07:41:38;;;;;;;2.65;2.17;;;17.60;70.40;;;;;;5054302;28;20577;-69
2022/10/18 07:44:04;;;;;;;3.33;2.38;;;17.70;71.30;;;;;;5053383;28;20650;-69
2022/10/18 07:46:30;;;;;;;3.72;2.40;;;17.70;70.50;;;;;;5054200;28;20210;-69
2022/10/18 07:48:57;;;;;;;2.20;2.00;;;17.70;70.40;;;;;;5054328;28;20210;-69
2022/10/18 07:51:22;;;;;;;2.40;2.20;;;17.80;70.30;;;;;;5053569;28;20233;-68
2022/10/18 07:53:48;;;;;;;1.95;1.85;;;17.80;70.30;;;;;;5054300;28;20206;-69
2022/10/18 07:56:15;;;;;;;3.70;2.60;;;17.80;70.30;;;;;;5053763;28;20577;-69
2022/10/18 07:58:44;;;;;;;5.72;2.42;;;17.90;70.20;;;;;;5053277;28;20193;-69
2022/10/18 08:01:09;;;;;;;2.25;2.03;;;17.80;70.20;;;;;;5053912;28;20207;-69
2022/10/18 08:03:35;;;;;;;4.47;2.05;;;17.90;70.20;;;;;;5054025;28;20175;-68
2022/10/18 08:06:01;;;;;;;1.98;1.88;;;17.90;70.20;;;;;;5053068;28;20171;-68
2022/10/18 08:08:27;;;;;;;2.72;1.88;;;18.00;70.20;;;;;;5054057;28;20266;-68
2022/10/18 08:10:52;;;;;;;3.63;2.40;;;18.00;70.20;;;;;;5053719;28;20233;-68
2022/10/18 08:13:18;;;;;;;3.38;2.08;;;18.00;70.10;;;;;;5052714;28;20540;-69
2022/10/18 08:15:43;;;;;;;3.70;2.20;;;18.00;70.10;;;;;;5052974;28;20211;-68
2022/10/18 08:18:09;;;;;;;2.55;1.80;;;18.10;70.20;;;;;;5053171;28;20182;-69
2022/10/18 08:20:35;;;;;;;2.45;2.00;;;18.10;70.20;;;;;;5052987;28;20175;-69
2022/10/18 08:23:01;;;;;;;2.67;2.08;;;18.10;70.20;;;;;;5053401;28;20344;-69
2022/10/18 08:25:28;;;;;;;3.58;2.00;;;18.10;70.10;;;;;;5062303;28;20198;-68
2022/10/18 08:27:54;;;;;;;2.47;1.95;;;18.20;70.20;;;;;;5073482;28;20178;-68
2022/10/18 08:30:19;;;;;;;1.98;1.88;;;18.20;70.10;;;;;;5072966;28;20632;-68
2022/10/18 08:32:45;;;;;;;2.92;2.00;;;18.20;70.10;;;;;;5072741;28;20256;-68
2022/10/18 08:35:10;;;;;;;2.05;1.80;;;18.20;70.10;;;;;;5072815;28;20667;-68
2022/10/18 08:37:36;;;;;;;2.30;2.10;;;18.20;70.00;;;;;;5073359;28;20174;-68
2022/10/18 08:40:01;;;;;;;2.40;1.90;;;18.30;71.00;;;;;;5072439;28;20220;-68
2022/10/18 08:42:40;;;;;;;2.42;2.20;;;18.30;70.10;;;;;;5073349;28;20175;-69
2022/10/18 08:45:07;;;;;;;2.40;1.98;;;18.30;70.10;;;;;;5073054;28;20224;-69
2022/10/18 08:47:38;;;;;;;2.00;1.90;;;18.30;70.10;;;;;;5054837;28;20562;-69
2022/10/18 08:50:15;;;;;;;2.95;2.28;;;18.40;70.10;;;;;;5071661;28;20210;-68
2022/10/18 08:52:46;;;;;;;2.47;1.92;;;18.40;70.10;;;;;;5072069;28;20211;-68
2022/10/18 08:55:23;;;;;;;2.28;2.00;;;18.40;70.10;;;;;;5071701;28;20740;-68
2022/10/18 08:57:49;;;;;;;2.03;1.90;;;18.50;70.10;;;;;;5056181;28;20297;-69
2022/10/18 09:00:19;;;;;;;2.10;1.83;;;18.50;70.10;;;;;;5072383;28;20177;-68
2022/10/18 09:03:03;;;;;;;3.08;1.80;;;18.50;70.10;;;;;;5072321;28;20174;-68
2022/10/18 09:05:54;;;;;;;2.05;1.88;;;18.50;70.10;;;;;;5072713;28;20229;-68
2022/10/18 09:08:26;;;;;;;2.00;1.80;;;18.60;70.10;;;;;;5070423;28;20703;-68
2022/10/18 09:11:06;;;;;;;1.70;1.60;;;18.60;70.10;;;;;;5071125;28;20276;-68
2022/10/18 09:13:59;;;;;;;2.30;2.08;;;18.60;70.10;;;;;;5071521;28;20204;-69
2022/10/18 09:16:53;;;;;;;7.55;2.67;;;18.70;70.20;;;;;;5071984;28;20163;-68
2022/10/18 09:19:56;;;;;;;2.10;1.90;;;18.70;70.10;;;;;;5071303;28;20170;-68
2022/10/18 09:22:34;;;;;;;3.05;1.90;;;18.70;70.20;;;;;;5071224;28;20634;-69
2022/10/18 09:25:25;;;;;;;4.40;2.05;;;18.80;70.30;;;;;;5066403;28;20533;-69
2022/10/18 09:27:53;;;;;;;2.40;1.90;;;18.80;70.20;;;;;;5030467;28;20183;-68
2022/10/18 09:30:43;;;;;;;2.40;1.70;;;18.90;70.40;;;;;;5050445;28;20198;-68
2022/10/18 09:33:18;;;;;;;1.80;1.70;;;18.90;70.30;;;;;;5051240;28;20202;-68
2022/10/18 09:35:54;;;;;;;2.88;1.80;;;18.90;70.30;;;;;;5050568;28;20280;-69
2022/10/18 09:38:22;;;;;;;1.73;1.63;;;18.90;70.30;;;;;;5050586;28;20609;-68
2022/10/18 09:40:57;;;;;;;2.00;1.80;;;18.90;70.30;;;;;;5034613;28;20704;-69
2022/10/18 09:43:35;;;;;;;1.75;1.65;;;19.00;70.40;;;;;;5050507;28;20194;-69
2022/10/18 09:46:02;;;;;;;2.20;1.73;;;19.00;70.30;;;;;;5052255;28;20200;-68
2022/10/18 09:48:50;;;;;;;4.43;2.17;;;19.00;70.30;;;;;;5052051;28;20182;-68
2022/10/18 09:51:20;;;;;;;2.97;1.98;;;19.00;70.30;;;;;;5035756;28;20179;-68
2022/10/18 09:54:02;;;;;;;2.92;1.60;;;19.00;70.20;;;;;;5050787;28;20725;-68
2022/10/18 09:56:34;;;;;;;3.13;1.70;;;19.10;70.30;;;;;;5052517;28;20179;-70
2022/10/18 09:59:00;;;;;;;2.60;2.10;;;19.10;70.40;;;;;;5050409;28;20179;-69
2022/10/18 10:01:29;;;;;;;2.50;1.60;;;19.10;70.40;;;;;;5052539;28;20178;-69
2022/10/18 10:03:54;;;;;;;2.72;1.73;;;19.10;70.40;;;;;;5051662;28;20179;-68
2022/10/18 10:06:30;;;;;;;2.47;1.70;;;19.10;70.50;;;;;;5052140;28;20175;-67
2022/10/18 10:09:04;;;;;;;1.98;1.67;;;19.10;70.50;;;;;;5052231;28;20179;-68
2022/10/18 10:11:46;;;;;;;1.80;1.70;;;19.10;70.50;;;;;;5051432;28;20231;-69
2022/10/18 10:14:15;;;;;;;2.70;1.83;;;19.20;70.50;;;;;;5051893;28;20696;-69
2022/10/18 10:16:42;;;;;;;2.97;1.70;;;19.20;70.50;;;;;;5052093;28;20178;-69
2022/10/18 10:19:19;;;;;;;2.25;1.60;;;19.20;70.60;;;;;;5051097;28;20194;-68
2022/10/18 10:21:45;;;;;;;2.28;1.67;;;19.20;70.50;;;;;;5051010;28;20596;-69
2022/10/18 10:24:23;;;;;;;2.67;1.67;;;19.20;70.50;;;;;;5050405;28;20550;-68
2022/10/18 10:26:48;;;;;;;1.67;1.58;;;19.20;70.40;;;;;;5030510;28;20180;-68
2022/10/18 10:29:45;;;;;;;2.10;1.85;;;19.20;70.50;;;;;;5031997;28;20167;-69
2022/10/18 10:32:15;;;;;;;1.52;1.35;;;19.30;70.50;;;;;;5031107;28;20179;-67
2022/10/18 10:34:41;;;;;;;2.25;1.38;;;19.30;70.50;;;;;;5032258;28;20334;-68
2022/10/18 10:37:24;;;;;;;1.58;1.40;;;19.30;70.50;;;;;;5030600;28;20636;-68
2022/10/18 10:40:12;;;;;;;1.98;1.60;;;19.30;70.50;;;;;;5032660;28;20195;-68
2022/10/18 10:42:47;;;;;;;3.28;1.90;;;19.30;70.40;;;;;;5035927;28;20183;-69
2022/10/18 10:45:13;;;;;;;1.67;1.50;;;19.30;70.40;;;;;;5034129;28;20183;-68
2022/10/18 10:47:38;;;;;;;1.77;1.45;;;19.30;70.30;;;;;;5033672;28;20179;-69
2022/10/18 10:50:11;;;;;;;2.10;1.90;;;19.30;70.30;;;;;;5035364;28;20226;-68
2022/10/18 10:52:37;;;;;;;2.15;1.63;;;19.40;70.30;;;;;;5034402;28;20580;-68
2022/10/18 10:55:03;;;;;;;2.17;1.38;;;19.40;70.30;;;;;;5034434;28;20727;-68
2022/10/18 10:57:29;;;;;;;1.63;1.50;;;19.40;70.20;;;;;;5034228;28;20179;-69
2022/10/18 10:59:55;;;;;;;1.33;1.23;;;19.40;70.20;;;;;;5034459;28;20225;-68
2022/10/18 11:02:31;;;;;;;2.55;1.40;;;19.40;70.20;;;;;;5034764;28;20180;-68
2022/10/18 11:05:15;;;;;;;1.55;1.42;;;19.40;70.10;;;;;;5035167;28;20262;-68
2022/10/18 11:07:43;;;;;;;1.33;1.23;;;19.50;70.10;;;;;;5034445;28;20547;-67
2022/10/18 11:10:08;;;;;;;1.60;1.50;;;19.50;70.10;;;;;;5033663;28;20186;-68
2022/10/18 11:12:44;;;;;;;2.67;1.23;;;19.50;70.00;;;;;;5035395;28;20180;-68
2022/10/18 11:15:10;;;;;;;3.65;1.30;;;19.50;70.00;;;;;;5032924;28;20276;-69
2022/10/18 11:17:41;;;;;;;1.88;1.55;;;19.60;70.00;;;;;;5034997;28;20310;-69
2022/10/18 11:20:08;;;;;;;1.60;1.27;;;19.50;69.80;;;;;;5034873;28;20172;-69
2022/10/18 11:22:54;;;;;;;2.42;1.55;;;19.50;69.70;;;;;;5035690;28;20207;-70
2022/10/18 11:25:20;;;;;;;1.77;1.42;;;19.50;69.70;;;;;;5049854;28;20178;-68
2022/10/18 11:28:17;;;;;;;3.00;1.45;;;19.60;69.70;;;;;;5074621;28;20174;-66
2022/10/18 11:31:11;;;;;;;2.20;1.23;;;19.60;69.60;;;;;;5073157;28;20193;-68
2022/10/18 11:33:42;;;;;;;1.75;1.27;;;19.60;69.60;;;;;;5074648;28;20186;-68
2022/10/18 11:36:12;;;;;;;2.35;1.52;;;19.60;69.60;;;;;;5072776;28;20201;-68
2022/10/18 11:38:41;;;;;;;1.83;1.50;;;19.60;69.50;;;;;;5056822;28;20175;-68
2022/10/18 11:41:25;;;;;;;2.72;1.40;;;19.60;69.50;;;;;;5072830;28;20538;-68
2022/10/18 11:43:56;;;;;;;1.45;1.33;;;19.60;69.50;;;;;;5072105;28;20174;-68
2022/10/18 11:46:26;;;;;;;2.50;1.40;;;19.70;69.60;;;;;;5057286;28;20183;-68
2022/10/18 11:49:04;;;;;;;1.65;1.30;;;19.70;69.60;;;;;;5074613;28;20236;-68
2022/10/18 11:51:48;;;;;;;1.52;1.20;;;19.60;69.70;;;;;;5073553;28;20174;-69
2022/10/18 11:54:25;;;;;;;1.63;1.27;;;19.60;69.60;;;;;;5073658;28;20206;-69
2022/10/18 11:57:11;;;;;;;2.45;1.67;;;19.60;69.70;;;;;;5073248;28;20535;-69
2022/10/18 11:59:38;;;;;;;1.60;1.38;;;19.60;69.60;;;;;;5073762;28;20535;-69
2022/10/18 12:02:29;;;;;;;1.60;1.30;;;19.60;69.60;;;;;;5072600;28;20182;-69
2022/10/18 12:04:57;;;;;;;2.83;1.50;;;19.60;69.60;;;;;;5072347;28;20174;-69
2022/10/18 12:07:22;;;;;;;2.92;1.83;;;19.60;69.50;;;;;;5072685;28;20219;-69
2022/10/18 12:09:48;;;;;;;2.35;1.00;;;19.60;69.50;;;;;;5074016;28;20174;-69
2022/10/18 12:12:24;;;;;;;3.88;1.63;;;19.60;69.50;;;;;;5054827;28;20229;-70
2022/10/18 12:15:02;;;;;;;4.88;1.30;;;19.60;69.40;;;;;;5073874;28;20297;-66
2022/10/18 12:17:36;;;;;;;3.33;1.55;;;19.50;69.30;;;;;;5072380;28;20441;-70
2022/10/18 12:20:10;;;;;;;3.08;1.65;;;19.60;69.40;;;;;;5056145;28;20209;-68
2022/10/18 12:22:38;;;;;;;4.22;1.27;;;19.50;69.30;;;;;;5056285;28;20188;-69
2022/10/18 12:25:06;;;;;;;3.00;1.23;;;19.50;69.20;;;;;;5065097;28;20661;-68
2022/10/18 12:27:37;;;;;;;4.53;1.65;;;19.50;69.10;;;;;;5052644;28;20250;-68
2022/10/18 12:30:08;;;;;;;2.95;0.98;;;19.50;69.10;;;;;;5035954;28;20229;-68
2022/10/18 12:32:33;;;;;;;2.67;1.15;;;19.50;69.10;;;;;;5035605;28;20175;-68
2022/10/18 12:35:04;;;;;;;3.92;1.20;;;19.50;69.10;;;;;;5052076;28;20582;-68
2022/10/18 12:37:39;;;;;;;3.65;1.60;;;19.50;69.00;;;;;;5036394;28;20638;-68
2022/10/18 12:40:12;;;;;;;2.10;1.13;;;19.50;69.00;;;;;;5052399;28;20179;-68
2022/10/18 12:42:42;;;;;;;2.65;1.30;;;19.50;68.90;;;;;;5053232;28;20565;-69
2022/10/18 12:45:33;;;;;;;1.67;0.90;;;19.50;68.90;;;;;;5052844;28;20676;-69
2022/10/18 12:48:05;;;;;;;3.47;1.50;;;19.60;68.80;;;;;;5052771;28;20175;-68
2022/10/18 12:50:35;;;;;;;2.13;1.50;;;19.60;68.70;;;;;;5036628;28;20171;-68
2022/10/18 12:53:11;;;;;;;1.65;1.10;;;19.60;68.60;;;;;;5051062;28;20175;-70
2022/10/18 12:55:38;;;;;;;2.42;1.35;;;19.60;68.50;;;;;;5052005;28;20211;-69
2022/10/18 12:58:14;;;;;;;1.55;1.20;;;19.60;68.40;;;;;;5053099;28;20178;-69
2022/10/18 13:00:42;;;;;;;1.77;1.08;;;19.60;68.40;;;;;;5052560;28;20163;-68